sensor_id;sensor_type;location;lat;lon;timestamp;P1;durP1;ratioP1;P2;durP2;ratioP2
12567;SDS011;6349;50.904;6.136;2023-08-06T00:00:33;1.50;;;1.10;;
12567;SDS011;6349;50.904;6.136;2023-08-06T00:02:34;1.23;;;1.10;;
12567;SDS011;6349;50.904;6.136;2023-08-06T00:04:35;1.88;;;1.10;;
12567;SDS011;6349;50.904;6.136;2023-08-06T00:06:35;0.90;;;0.90;;
12567;SDS011;6349;50.904;6.136;2023-08-06T00:08:36;1.45;;;1.00;;
12567;SDS011;6349;50.904;6.136;2023-08-06T00:10:36;1.00;;;0.90;;
12567;SDS011;6349;50.904;6.136;2023-08-06T00:12:37;1.10;;;1.00;;
12567;SDS011;6349;50.904;6.136;2023-08-06T00:14:38;1.13;;;1.05;;
12567;SDS011;6349;50.904;6.136;2023-08-06T00:16:38;1.15;;;0.90;;
12567;SDS011;6349;50.904;6.136;2023-08-06T00:18:39;0.90;;;0.90;;
12567;SDS011;6349;50.904;6.136;2023-08-06T00:20:40;1.77;;;1.25;;
12567;SDS011;6349;50.904;6.136;2023-08-06T00:22:41;1.75;;;1.02;;
12567;SDS011;6349;50.904;6.136;2023-08-06T00:24:42;0.98;;;0.98;;
12567;SDS011;6349;50.904;6.136;2023-08-06T00:26:42;1.38;;;0.90;;
12567;SDS011;6349;50.904;6.136;2023-08-06T00:28:43;0.90;;;0.80;;
12567;SDS011;6349;50.904;6.136;2023-08-06T00:30:43;0.93;;;0.85;;
12567;SDS011;6349;50.904;6.136;2023-08-06T00:32:44;0.80;;;0.80;;
12567;SDS011;6349;50.904;6.136;2023-08-06T00:34:45;0.88;;;0.88;;
12567;SDS011;6349;50.904;6.136;2023-08-06T00:36:45;1.55;;;1.10;;
12567;SDS011;6349;50.904;6.136;2023-08-06T00:38:46;2.05;;;1.05;;
12567;SDS011;6349;50.904;6.136;2023-08-06T00:40:46;1.10;;;1.00;;
12567;SDS011;6349;50.904;6.136;2023-08-06T00:42:47;3.47;;;1.10;;
12567;SDS011;6349;50.904;6.136;2023-08-06T00:44:48;1.90;;;1.08;;
12567;SDS011;6349;50.904;6.136;2023-08-06T00:46:49;1.10;;;1.00;;
12567;SDS011;6349;50.904;6.136;2023-08-06T00:48:49;1.10;;;1.00;;
12567;SDS011;6349;50.904;6.136;2023-08-06T00:50:51;1.08;;;0.98;;
12567;SDS011;6349;50.904;6.136;2023-08-06T00:52:52;1.20;;;1.10;;
12567;SDS011;6349;50.904;6.136;2023-08-06T00:54:53;0.80;;;0.75;;
12567;SDS011;6349;50.904;6.136;2023-08-06T00:56:53;1.10;;;1.00;;
12567;SDS011;6349;50.904;6.136;2023-08-06T00:58:54;1.27;;;0.70;;
12567;SDS011;6349;50.904;6.136;2023-08-06T01:00:55;1.10;;;1.00;;
12567;SDS011;6349;50.904;6.136;2023-08-06T01:02:55;0.80;;;0.80;;
12567;SDS011;6349;50.904;6.136;2023-08-06T01:04:56;2.80;;;1.10;;
12567;SDS011;6349;50.904;6.136;2023-08-06T01:07:12;1.58;;;1.02;;
12567;SDS011;6349;50.904;6.136;2023-08-06T01:09:44;2.78;;;1.00;;
12567;SDS011;6349;50.904;6.136;2023-08-06T01:12:20;2.05;;;0.95;;
12567;SDS011;6349;50.904;6.136;2023-08-06T01:15:19;1.33;;;0.90;;
12567;SDS011;6349;50.904;6.136;2023-08-06T01:17:22;0.80;;;0.80;;
12567;SDS011;6349;50.904;6.136;2023-08-06T01:19:24;0.80;;;0.80;;
12567;SDS011;6349;50.904;6.136;2023-08-06T01:21:24;0.70;;;0.70;;
12567;SDS011;6349;50.904;6.136;2023-08-06T01:23:25;0.80;;;0.80;;
12567;SDS011;6349;50.904;6.136;2023-08-06T01:25:27;1.13;;;0.90;;
12567;SDS011;6349;50.904;6.136;2023-08-06T01:27:34;1.00;;;0.75;;
12567;SDS011;6349;50.904;6.136;2023-08-06T01:29:53;1.02;;;0.82;;
12567;SDS011;6349;50.904;6.136;2023-08-06T01:32:07;1.15;;;0.95;;
12567;SDS011;6349;50.904;6.136;2023-08-06T01:34:10;0.95;;;0.85;;
12567;SDS011;6349;50.904;6.136;2023-08-06T01:36:16;1.00;;;0.80;;
12567;SDS011;6349;50.904;6.136;2023-08-06T01:38:19;1.27;;;1.00;;
12567;SDS011;6349;50.904;6.136;2023-08-06T01:40:20;1.20;;;1.10;;
12567;SDS011;6349;50.904;6.136;2023-08-06T01:42:20;1.48;;;1.00;;
12567;SDS011;6349;50.904;6.136;2023-08-06T01:44:21;2.35;;;0.90;;
12567;SDS011;6349;50.904;6.136;2023-08-06T01:46:21;1.58;;;1.10;;
12567;SDS011;6349;50.904;6.136;2023-08-06T01:48:22;1.65;;;0.95;;
12567;SDS011;6349;50.904;6.136;2023-08-06T01:50:23;2.25;;;0.90;;
12567;SDS011;6349;50.904;6.136;2023-08-06T01:52:23;1.05;;;0.90;;
12567;SDS011;6349;50.904;6.136;2023-08-06T01:54:24;1.42;;;0.90;;
12567;SDS011;6349;50.904;6.136;2023-08-06T01:56:24;1.13;;;0.90;;
12567;SDS011;6349;50.904;6.136;2023-08-06T01:58:25;0.98;;;0.85;;
12567;SDS011;6349;50.904;6.136;2023-08-06T02:00:25;1.40;;;0.95;;
12567;SDS011;6349;50.904;6.136;2023-08-06T02:02:27;1.33;;;1.00;;
12567;SDS011;6349;50.904;6.136;2023-08-06T02:04:28;0.60;;;0.60;;
12567;SDS011;6349;50.904;6.136;2023-08-06T02:06:29;2.45;;;0.80;;
12567;SDS011;6349;50.904;6.136;2023-08-06T02:08:30;1.25;;;1.00;;
12567;SDS011;6349;50.904;6.136;2023-08-06T02:10:30;1.35;;;0.75;;
12567;SDS011;6349;50.904;6.136;2023-08-06T02:12:31;1.33;;;0.80;;
12567;SDS011;6349;50.904;6.136;2023-08-06T02:14:32;1.00;;;0.77;;
12567;SDS011;6349;50.904;6.136;2023-08-06T02:16:32;1.48;;;0.80;;
12567;SDS011;6349;50.904;6.136;2023-08-06T02:18:33;1.08;;;0.85;;
12567;SDS011;6349;50.904;6.136;2023-08-06T02:20:33;0.80;;;0.70;;
12567;SDS011;6349;50.904;6.136;2023-08-06T02:22:34;1.35;;;0.85;;
12567;SDS011;6349;50.904;6.136;2023-08-06T02:24:35;1.10;;;0.70;;
12567;SDS011;6349;50.904;6.136;2023-08-06T02:26:35;0.63;;;0.63;;
12567;SDS011;6349;50.904;6.136;2023-08-06T02:28:36;1.25;;;0.68;;
12567;SDS011;6349;50.904;6.136;2023-08-06T02:30:36;1.60;;;0.80;;
12567;SDS011;6349;50.904;6.136;2023-08-06T02:32:37;1.52;;;0.90;;
12567;SDS011;6349;50.904;6.136;2023-08-06T02:34:37;0.90;;;0.60;;
12567;SDS011;6349;50.904;6.136;2023-08-06T02:36:38;0.60;;;0.60;;
12567;SDS011;6349;50.904;6.136;2023-08-06T02:38:38;0.80;;;0.77;;
12567;SDS011;6349;50.904;6.136;2023-08-06T02:40:45;1.15;;;1.00;;
12567;SDS011;6349;50.904;6.136;2023-08-06T02:42:46;0.73;;;0.57;;
12567;SDS011;6349;50.904;6.136;2023-08-06T02:44:47;1.17;;;0.63;;
12567;SDS011;6349;50.904;6.136;2023-08-06T02:46:47;1.13;;;0.80;;
12567;SDS011;6349;50.904;6.136;2023-08-06T02:48:48;1.90;;;0.80;;
12567;SDS011;6349;50.904;6.136;2023-08-06T02:50:48;1.27;;;0.77;;
12567;SDS011;6349;50.904;6.136;2023-08-06T02:52:49;0.90;;;0.80;;
12567;SDS011;6349;50.904;6.136;2023-08-06T02:54:49;0.68;;;0.60;;
12567;SDS011;6349;50.904;6.136;2023-08-06T02:56:50;1.90;;;0.70;;
12567;SDS011;6349;50.904;6.136;2023-08-06T02:58:50;1.42;;;0.70;;
12567;SDS011;6349;50.904;6.136;2023-08-06T03:01:04;0.68;;;0.60;;
12567;SDS011;6349;50.904;6.136;2023-08-06T03:03:05;1.10;;;0.95;;
12567;SDS011;6349;50.904;6.136;2023-08-06T03:05:06;1.30;;;0.65;;
12567;SDS011;6349;50.904;6.136;2023-08-06T03:07:07;0.70;;;0.70;;
12567;SDS011;6349;50.904;6.136;2023-08-06T03:09:08;1.92;;;0.90;;
12567;SDS011;6349;50.904;6.136;2023-08-06T03:11:08;1.27;;;0.77;;
12567;SDS011;6349;50.904;6.136;2023-08-06T03:13:09;1.85;;;0.77;;
12567;SDS011;6349;50.904;6.136;2023-08-06T03:15:09;1.23;;;0.70;;
12567;SDS011;6349;50.904;6.136;2023-08-06T03:17:10;1.48;;;0.68;;
12567;SDS011;6349;50.904;6.136;2023-08-06T03:19:11;1.75;;;0.82;;
12567;SDS011;6349;50.904;6.136;2023-08-06T03:21:11;1.10;;;0.82;;
12567;SDS011;6349;50.904;6.136;2023-08-06T03:23:12;0.77;;;0.68;;
12567;SDS011;6349;50.904;6.136;2023-08-06T03:25:12;1.90;;;0.85;;
12567;SDS011;6349;50.904;6.136;2023-08-06T03:27:13;1.77;;;0.63;;
12567;SDS011;6349;50.904;6.136;2023-08-06T03:29:13;0.90;;;0.68;;
12567;SDS011;6349;50.904;6.136;2023-08-06T03:31:14;1.95;;;0.85;;
12567;SDS011;6349;50.904;6.136;2023-08-06T03:33:14;0.68;;;0.68;;
12567;SDS011;6349;50.904;6.136;2023-08-06T03:35:15;1.30;;;0.90;;
12567;SDS011;6349;50.904;6.136;2023-08-06T03:37:16;1.00;;;0.80;;
12567;SDS011;6349;50.904;6.136;2023-08-06T03:39:16;1.23;;;0.70;;
12567;SDS011;6349;50.904;6.136;2023-08-06T03:41:17;1.10;;;0.75;;
12567;SDS011;6349;50.904;6.136;2023-08-06T03:43:17;1.85;;;0.85;;
12567;SDS011;6349;50.904;6.136;2023-08-06T03:45:18;1.30;;;0.77;;
12567;SDS011;6349;50.904;6.136;2023-08-06T03:47:18;0.70;;;0.65;;
12567;SDS011;6349;50.904;6.136;2023-08-06T03:49:19;2.25;;;0.70;;
12567;SDS011;6349;50.904;6.136;2023-08-06T03:51:19;1.10;;;0.73;;
12567;SDS011;6349;50.904;6.136;2023-08-06T03:53:20;1.75;;;0.70;;
12567;SDS011;6349;50.904;6.136;2023-08-06T03:55:21;0.77;;;0.60;;
12567;SDS011;6349;50.904;6.136;2023-08-06T03:57:22;1.65;;;0.80;;
12567;SDS011;6349;50.904;6.136;2023-08-06T03:59:22;0.70;;;0.70;;
12567;SDS011;6349;50.904;6.136;2023-08-06T04:01:23;1.38;;;0.65;;
12567;SDS011;6349;50.904;6.136;2023-08-06T04:03:23;0.80;;;0.57;;
12567;SDS011;6349;50.904;6.136;2023-08-06T04:05:24;0.68;;;0.63;;
12567;SDS011;6349;50.904;6.136;2023-08-06T04:07:24;0.55;;;0.38;;
12567;SDS011;6349;50.904;6.136;2023-08-06T04:09:27;0.75;;;0.70;;
12567;SDS011;6349;50.904;6.136;2023-08-06T04:11:28;0.60;;;0.60;;
12567;SDS011;6349;50.904;6.136;2023-08-06T04:13:29;0.50;;;0.50;;
12567;SDS011;6349;50.904;6.136;2023-08-06T04:15:29;0.98;;;0.75;;
12567;SDS011;6349;50.904;6.136;2023-08-06T04:17:30;0.52;;;0.52;;
12567;SDS011;6349;50.904;6.136;2023-08-06T04:19:30;0.77;;;0.60;;
12567;SDS011;6349;50.904;6.136;2023-08-06T04:21:31;0.90;;;0.60;;
12567;SDS011;6349;50.904;6.136;2023-08-06T04:23:32;0.68;;;0.60;;
12567;SDS011;6349;50.904;6.136;2023-08-06T04:25:32;1.15;;;0.60;;
12567;SDS011;6349;50.904;6.136;2023-08-06T04:27:33;1.15;;;0.70;;
12567;SDS011;6349;50.904;6.136;2023-08-06T04:29:33;0.73;;;0.70;;
12567;SDS011;6349;50.904;6.136;2023-08-06T04:31:34;0.60;;;0.50;;
12567;SDS011;6349;50.904;6.136;2023-08-06T04:33:34;1.08;;;0.60;;
12567;SDS011;6349;50.904;6.136;2023-08-06T04:35:35;1.77;;;0.60;;
12567;SDS011;6349;50.904;6.136;2023-08-06T04:37:35;0.85;;;0.63;;
12567;SDS011;6349;50.904;6.136;2023-08-06T04:39:36;1.10;;;0.60;;
12567;SDS011;6349;50.904;6.136;2023-08-06T04:41:36;1.02;;;0.60;;
12567;SDS011;6349;50.904;6.136;2023-08-06T04:43:37;0.60;;;0.60;;
12567;SDS011;6349;50.904;6.136;2023-08-06T04:45:37;0.82;;;0.60;;
12567;SDS011;6349;50.904;6.136;2023-08-06T04:47:38;0.60;;;0.60;;
12567;SDS011;6349;50.904;6.136;2023-08-06T04:49:39;1.95;;;0.75;;
12567;SDS011;6349;50.904;6.136;2023-08-06T04:51:39;1.35;;;0.55;;
12567;SDS011;6349;50.904;6.136;2023-08-06T04:53:40;1.30;;;0.50;;
12567;SDS011;6349;50.904;6.136;2023-08-06T04:55:40;0.90;;;0.60;;
12567;SDS011;6349;50.904;6.136;2023-08-06T04:57:41;2.15;;;0.73;;
12567;SDS011;6349;50.904;6.136;2023-08-06T04:59:42;0.70;;;0.70;;
12567;SDS011;6349;50.904;6.136;2023-08-06T05:01:42;0.88;;;0.80;;
12567;SDS011;6349;50.904;6.136;2023-08-06T05:03:43;0.80;;;0.80;;
12567;SDS011;6349;50.904;6.136;2023-08-06T05:05:43;1.15;;;1.00;;
12567;SDS011;6349;50.904;6.136;2023-08-06T05:07:48;0.80;;;0.80;;
12567;SDS011;6349;50.904;6.136;2023-08-06T05:09:49;1.27;;;1.10;;
12567;SDS011;6349;50.904;6.136;2023-08-06T05:11:49;1.10;;;1.00;;
12567;SDS011;6349;50.904;6.136;2023-08-06T05:13:50;0.80;;;0.80;;
12567;SDS011;6349;50.904;6.136;2023-08-06T05:15:52;1.20;;;0.93;;
12567;SDS011;6349;50.904;6.136;2023-08-06T05:17:53;1.48;;;1.00;;
12567;SDS011;6349;50.904;6.136;2023-08-06T05:19:54;1.35;;;0.95;;
12567;SDS011;6349;50.904;6.136;2023-08-06T05:21:55;2.15;;;1.02;;
12567;SDS011;6349;50.904;6.136;2023-08-06T05:23:55;1.75;;;1.00;;
12567;SDS011;6349;50.904;6.136;2023-08-06T05:25:56;1.45;;;1.08;;
12567;SDS011;6349;50.904;6.136;2023-08-06T05:27:56;1.20;;;1.00;;
12567;SDS011;6349;50.904;6.136;2023-08-06T05:29:57;1.20;;;1.17;;
12567;SDS011;6349;50.904;6.136;2023-08-06T05:31:57;1.45;;;1.20;;
12567;SDS011;6349;50.904;6.136;2023-08-06T05:33:58;1.75;;;1.40;;
12567;SDS011;6349;50.904;6.136;2023-08-06T05:35:59;1.98;;;1.40;;
12567;SDS011;6349;50.904;6.136;2023-08-06T05:37:59;2.33;;;1.40;;
12567;SDS011;6349;50.904;6.136;2023-08-06T05:40:00;2.65;;;1.40;;
12567;SDS011;6349;50.904;6.136;2023-08-06T05:42:01;2.35;;;1.50;;
12567;SDS011;6349;50.904;6.136;2023-08-06T05:44:03;2.47;;;1.67;;
12567;SDS011;6349;50.904;6.136;2023-08-06T05:46:03;2.70;;;1.70;;
12567;SDS011;6349;50.904;6.136;2023-08-06T05:48:04;3.00;;;2.00;;
12567;SDS011;6349;50.904;6.136;2023-08-06T05:50:05;1.60;;;1.50;;
12567;SDS011;6349;50.904;6.136;2023-08-06T05:52:06;2.15;;;1.95;;
12567;SDS011;6349;50.904;6.136;2023-08-06T05:54:08;2.38;;;2.10;;
12567;SDS011;6349;50.904;6.136;2023-08-06T05:56:08;3.03;;;1.90;;
12567;SDS011;6349;50.904;6.136;2023-08-06T05:58:09;4.22;;;2.28;;
12567;SDS011;6349;50.904;6.136;2023-08-06T06:00:10;3.38;;;2.10;;
12567;SDS011;6349;50.904;6.136;2023-08-06T06:02:11;2.53;;;2.10;;
12567;SDS011;6349;50.904;6.136;2023-08-06T06:04:11;2.63;;;2.30;;
12567;SDS011;6349;50.904;6.136;2023-08-06T06:06:12;4.55;;;2.60;;
12567;SDS011;6349;50.904;6.136;2023-08-06T06:08:12;3.45;;;2.40;;
12567;SDS011;6349;50.904;6.136;2023-08-06T06:10:13;2.58;;;2.30;;
12567;SDS011;6349;50.904;6.136;2023-08-06T06:12:14;4.78;;;2.50;;
12567;SDS011;6349;50.904;6.136;2023-08-06T06:14:14;2.58;;;2.35;;
12567;SDS011;6349;50.904;6.136;2023-08-06T06:16:15;3.13;;;2.47;;
12567;SDS011;6349;50.904;6.136;2023-08-06T06:18:15;3.83;;;2.60;;
12567;SDS011;6349;50.904;6.136;2023-08-06T06:20:16;3.08;;;2.40;;
12567;SDS011;6349;50.904;6.136;2023-08-06T06:22:16;2.50;;;2.30;;
12567;SDS011;6349;50.904;6.136;2023-08-06T06:24:17;4.70;;;2.40;;
12567;SDS011;6349;50.904;6.136;2023-08-06T06:26:18;2.90;;;2.60;;
12567;SDS011;6349;50.904;6.136;2023-08-06T06:28:18;2.35;;;2.17;;
12567;SDS011;6349;50.904;6.136;2023-08-06T06:30:19;2.60;;;2.40;;
12567;SDS011;6349;50.904;6.136;2023-08-06T06:32:20;3.88;;;2.50;;
12567;SDS011;6349;50.904;6.136;2023-08-06T06:34:21;3.13;;;2.50;;
12567;SDS011;6349;50.904;6.136;2023-08-06T06:36:22;2.85;;;2.55;;
12567;SDS011;6349;50.904;6.136;2023-08-06T06:38:23;2.88;;;2.50;;
12567;SDS011;6349;50.904;6.136;2023-08-06T06:40:24;3.00;;;2.70;;
12567;SDS011;6349;50.904;6.136;2023-08-06T06:42:24;2.90;;;2.70;;
12567;SDS011;6349;50.904;6.136;2023-08-06T06:44:25;3.08;;;2.75;;
12567;SDS011;6349;50.904;6.136;2023-08-06T06:46:25;2.63;;;2.30;;
12567;SDS011;6349;50.904;6.136;2023-08-06T06:48:26;2.60;;;2.40;;
12567;SDS011;6349;50.904;6.136;2023-08-06T06:50:28;3.30;;;2.17;;
12567;SDS011;6349;50.904;6.136;2023-08-06T06:52:29;3.33;;;2.10;;
12567;SDS011;6349;50.904;6.136;2023-08-06T06:54:29;1.90;;;1.80;;
12567;SDS011;6349;50.904;6.136;2023-08-06T06:56:30;2.58;;;1.88;;
12567;SDS011;6349;50.904;6.136;2023-08-06T06:58:31;2.45;;;2.10;;
12567;SDS011;6349;50.904;6.136;2023-08-06T07:00:32;1.50;;;1.40;;
12567;SDS011;6349;50.904;6.136;2023-08-06T07:02:35;1.58;;;1.40;;
12567;SDS011;6349;50.904;6.136;2023-08-06T07:04:35;1.02;;;1.00;;
12567;SDS011;6349;50.904;6.136;2023-08-06T07:06:36;1.45;;;1.17;;
12567;SDS011;6349;50.904;6.136;2023-08-06T07:08:36;1.42;;;1.05;;
12567;SDS011;6349;50.904;6.136;2023-08-06T07:10:37;1.17;;;1.10;;
12567;SDS011;6349;50.904;6.136;2023-08-06T07:12:38;1.27;;;1.17;;
12567;SDS011;6349;50.904;6.136;2023-08-06T07:14:39;1.67;;;1.10;;
12567;SDS011;6349;50.904;6.136;2023-08-06T07:16:39;2.08;;;1.20;;
12567;SDS011;6349;50.904;6.136;2023-08-06T07:18:40;1.10;;;1.00;;
12567;SDS011;6349;50.904;6.136;2023-08-06T07:20:40;0.90;;;0.80;;
12567;SDS011;6349;50.904;6.136;2023-08-06T07:22:41;1.02;;;0.70;;
12567;SDS011;6349;50.904;6.136;2023-08-06T07:24:41;2.15;;;0.77;;
12567;SDS011;6349;50.904;6.136;2023-08-06T07:26:42;1.10;;;0.55;;
12567;SDS011;6349;50.904;6.136;2023-08-06T07:28:43;0.38;;;0.38;;
12567;SDS011;6349;50.904;6.136;2023-08-06T07:30:44;0.35;;;0.35;;
12567;SDS011;6349;50.904;6.136;2023-08-06T07:32:45;0.63;;;0.63;;
12567;SDS011;6349;50.904;6.136;2023-08-06T07:34:46;1.07;;;0.50;;
12567;SDS011;6349;50.904;6.136;2023-08-06T07:36:46;0.75;;;0.65;;
12567;SDS011;6349;50.904;6.136;2023-08-06T07:38:47;1.27;;;0.95;;
12567;SDS011;6349;50.904;6.136;2023-08-06T07:40:51;1.25;;;1.02;;
12567;SDS011;6349;50.904;6.136;2023-08-06T07:42:52;2.22;;;1.20;;
12567;SDS011;6349;50.904;6.136;2023-08-06T07:44:53;1.67;;;1.15;;
12567;SDS011;6349;50.904;6.136;2023-08-06T07:46:58;1.55;;;1.20;;
12567;SDS011;6349;50.904;6.136;2023-08-06T07:48:58;1.58;;;1.42;;
12567;SDS011;6349;50.904;6.136;2023-08-06T07:50:59;1.70;;;1.43;;
12567;SDS011;6349;50.904;6.136;2023-08-06T07:52:59;1.27;;;1.17;;
12567;SDS011;6349;50.904;6.136;2023-08-06T07:55:00;1.65;;;1.55;;
12567;SDS011;6349;50.904;6.136;2023-08-06T07:57:04;1.70;;;1.60;;
12567;SDS011;6349;50.904;6.136;2023-08-06T07:59:05;2.05;;;1.80;;
12567;SDS011;6349;50.904;6.136;2023-08-06T08:01:06;2.05;;;1.73;;
12567;SDS011;6349;50.904;6.136;2023-08-06T08:03:07;1.93;;;1.83;;
12567;SDS011;6349;50.904;6.136;2023-08-06T08:05:08;1.92;;;1.80;;
12567;SDS011;6349;50.904;6.136;2023-08-06T08:07:09;2.33;;;2.13;;
12567;SDS011;6349;50.904;6.136;2023-08-06T08:09:10;3.88;;;2.40;;
12567;SDS011;6349;50.904;6.136;2023-08-06T08:11:11;2.90;;;2.20;;
12567;SDS011;6349;50.904;6.136;2023-08-06T08:13:11;2.05;;;1.85;;
12567;SDS011;6349;50.904;6.136;2023-08-06T08:15:14;1.20;;;1.10;;
12567;SDS011;6349;50.904;6.136;2023-08-06T08:17:15;0.60;;;0.60;;
12567;SDS011;6349;50.904;6.136;2023-08-06T08:19:17;0.77;;;0.70;;
12567;SDS011;6349;50.904;6.136;2023-08-06T08:21:19;0.47;;;0.47;;
12567;SDS011;6349;50.904;6.136;2023-08-06T08:23:21;0.80;;;0.70;;
12567;SDS011;6349;50.904;6.136;2023-08-06T08:25:24;1.47;;;0.67;;
12567;SDS011;6349;50.904;6.136;2023-08-06T08:27:27;1.20;;;0.73;;
12567;SDS011;6349;50.904;6.136;2023-08-06T08:29:31;0.77;;;0.70;;
12567;SDS011;6349;50.904;6.136;2023-08-06T08:31:32;0.73;;;0.70;;
12567;SDS011;6349;50.904;6.136;2023-08-06T08:33:40;0.80;;;0.60;;
12567;SDS011;6349;50.904;6.136;2023-08-06T08:35:45;0.60;;;0.57;;
12567;SDS011;6349;50.904;6.136;2023-08-06T08:37:48;0.70;;;0.70;;
12567;SDS011;6349;50.904;6.136;2023-08-06T08:39:51;0.83;;;0.80;;
12567;SDS011;6349;50.904;6.136;2023-08-06T08:41:56;1.37;;;0.50;;
12567;SDS011;6349;50.904;6.136;2023-08-06T08:43:59;0.70;;;0.70;;
12567;SDS011;6349;50.904;6.136;2023-08-06T08:46:01;0.80;;;0.70;;
12567;SDS011;6349;50.904;6.136;2023-08-06T08:48:05;0.60;;;0.60;;
12567;SDS011;6349;50.904;6.136;2023-08-06T08:50:07;0.60;;;0.60;;
12567;SDS011;6349;50.904;6.136;2023-08-06T08:52:18;0.80;;;0.70;;
12567;SDS011;6349;50.904;6.136;2023-08-06T08:54:23;0.70;;;0.70;;
12567;SDS011;6349;50.904;6.136;2023-08-06T08:56:27;1.13;;;0.93;;
12567;SDS011;6349;50.904;6.136;2023-08-06T08:58:29;1.40;;;1.30;;
12567;SDS011;6349;50.904;6.136;2023-08-06T09:00:31;1.60;;;1.50;;
12567;SDS011;6349;50.904;6.136;2023-08-06T09:02:33;2.23;;;1.80;;
12567;SDS011;6349;50.904;6.136;2023-08-06T09:04:37;2.10;;;1.90;;
12567;SDS011;6349;50.904;6.136;2023-08-06T09:06:40;3.40;;;2.20;;
12567;SDS011;6349;50.904;6.136;2023-08-06T09:08:48;3.93;;;1.90;;
12567;SDS011;6349;50.904;6.136;2023-08-06T09:11:07;1.87;;;1.77;;
12567;SDS011;6349;50.904;6.136;2023-08-06T09:13:12;1.90;;;1.80;;
12567;SDS011;6349;50.904;6.136;2023-08-06T09:15:13;2.47;;;1.50;;
12567;SDS011;6349;50.904;6.136;2023-08-06T09:17:16;2.20;;;1.70;;
12567;SDS011;6349;50.904;6.136;2023-08-06T09:19:21;2.40;;;1.77;;
12567;SDS011;6349;50.904;6.136;2023-08-06T09:21:23;2.53;;;1.70;;
12567;SDS011;6349;50.904;6.136;2023-08-06T09:23:28;2.20;;;1.70;;
12567;SDS011;6349;50.904;6.136;2023-08-06T09:25:33;1.70;;;1.60;;
12567;SDS011;6349;50.904;6.136;2023-08-06T09:27:37;2.20;;;2.00;;
12567;SDS011;6349;50.904;6.136;2023-08-06T09:29:45;3.10;;;1.93;;
12567;SDS011;6349;50.904;6.136;2023-08-06T09:31:47;2.93;;;1.90;;
12567;SDS011;6349;50.904;6.136;2023-08-06T09:33:50;2.10;;;1.87;;
12567;SDS011;6349;50.904;6.136;2023-08-06T09:35:51;2.73;;;1.60;;
12567;SDS011;6349;50.904;6.136;2023-08-06T09:38:04;1.90;;;1.60;;
12567;SDS011;6349;50.904;6.136;2023-08-06T09:40:24;2.63;;;1.87;;
12567;SDS011;6349;50.904;6.136;2023-08-06T09:42:28;3.87;;;1.70;;
12567;SDS011;6349;50.904;6.136;2023-08-06T09:44:52;2.93;;;1.73;;
12567;SDS011;6349;50.904;6.136;2023-08-06T09:47:07;3.87;;;1.50;;
12567;SDS011;6349;50.904;6.136;2023-08-06T09:49:09;3.00;;;1.60;;
12567;SDS011;6349;50.904;6.136;2023-08-06T09:51:13;3.60;;;1.63;;
12567;SDS011;6349;50.904;6.136;2023-08-06T09:53:16;3.37;;;1.90;;
12567;SDS011;6349;50.904;6.136;2023-08-06T09:55:19;2.37;;;1.30;;
12567;SDS011;6349;50.904;6.136;2023-08-06T09:57:20;2.60;;;1.37;;
12567;SDS011;6349;50.904;6.136;2023-08-06T09:59:24;2.50;;;1.27;;
12567;SDS011;6349;50.904;6.136;2023-08-06T10:01:27;3.07;;;1.30;;
12567;SDS011;6349;50.904;6.136;2023-08-06T10:03:29;2.50;;;1.40;;
12567;SDS011;6349;50.904;6.136;2023-08-06T10:05:34;4.23;;;1.20;;
12567;SDS011;6349;50.904;6.136;2023-08-06T10:07:39;3.17;;;1.40;;
12567;SDS011;6349;50.904;6.136;2023-08-06T10:09:43;4.17;;;1.40;;
12567;SDS011;6349;50.904;6.136;2023-08-06T10:11:44;1.93;;;1.30;;
12567;SDS011;6349;50.904;6.136;2023-08-06T10:13:50;3.83;;;1.60;;
12567;SDS011;6349;50.904;6.136;2023-08-06T10:16:09;5.97;;;1.57;;
12567;SDS011;6349;50.904;6.136;2023-08-06T10:18:12;4.87;;;1.50;;
12567;SDS011;6349;50.904;6.136;2023-08-06T10:20:18;3.37;;;1.27;;
12567;SDS011;6349;50.904;6.136;2023-08-06T10:22:21;2.77;;;1.67;;
12567;SDS011;6349;50.904;6.136;2023-08-06T10:24:25;2.83;;;1.60;;
12567;SDS011;6349;50.904;6.136;2023-08-06T10:26:30;1.33;;;1.20;;
12567;SDS011;6349;50.904;6.136;2023-08-06T10:28:38;2.47;;;1.27;;
12567;SDS011;6349;50.904;6.136;2023-08-06T10:30:46;3.23;;;1.37;;
12567;SDS011;6349;50.904;6.136;2023-08-06T10:32:48;1.70;;;1.20;;
12567;SDS011;6349;50.904;6.136;2023-08-06T10:34:57;3.87;;;1.30;;
12567;SDS011;6349;50.904;6.136;2023-08-06T10:37:01;2.53;;;1.70;;
12567;SDS011;6349;50.904;6.136;2023-08-06T10:39:05;3.33;;;1.37;;
12567;SDS011;6349;50.904;6.136;2023-08-06T10:41:17;2.30;;;1.50;;
12567;SDS011;6349;50.904;6.136;2023-08-06T10:43:34;2.37;;;1.20;;
12567;SDS011;6349;50.904;6.136;2023-08-06T10:45:38;2.73;;;1.50;;
12567;SDS011;6349;50.904;6.136;2023-08-06T10:47:51;3.03;;;1.40;;
12567;SDS011;6349;50.904;6.136;2023-08-06T10:49:53;3.20;;;1.50;;
12567;SDS011;6349;50.904;6.136;2023-08-06T10:51:55;1.47;;;1.37;;
12567;SDS011;6349;50.904;6.136;2023-08-06T10:53:56;2.70;;;1.23;;
12567;SDS011;6349;50.904;6.136;2023-08-06T10:55:59;2.13;;;1.27;;
12567;SDS011;6349;50.904;6.136;2023-08-06T10:58:01;1.63;;;1.27;;
12567;SDS011;6349;50.904;6.136;2023-08-06T11:00:06;2.83;;;1.40;;
12567;SDS011;6349;50.904;6.136;2023-08-06T11:02:10;2.90;;;1.37;;
12567;SDS011;6349;50.904;6.136;2023-08-06T11:04:12;2.43;;;1.23;;
12567;SDS011;6349;50.904;6.136;2023-08-06T11:06:20;3.20;;;1.13;;
12567;SDS011;6349;50.904;6.136;2023-08-06T11:08:29;2.35;;;1.30;;
12567;SDS011;6349;50.904;6.136;2023-08-06T11:10:35;2.63;;;1.50;;
12567;SDS011;6349;50.904;6.136;2023-08-06T11:12:36;4.87;;;1.70;;
12567;SDS011;6349;50.904;6.136;2023-08-06T11:14:37;3.60;;;1.42;;
12567;SDS011;6349;50.904;6.136;2023-08-06T11:16:40;3.25;;;1.50;;
12567;SDS011;6349;50.904;6.136;2023-08-06T11:18:42;3.23;;;1.10;;
12567;SDS011;6349;50.904;6.136;2023-08-06T11:20:44;3.90;;;1.50;;
12567;SDS011;6349;50.904;6.136;2023-08-06T11:22:46;3.88;;;1.45;;
12567;SDS011;6349;50.904;6.136;2023-08-06T11:24:47;3.30;;;1.30;;
12567;SDS011;6349;50.904;6.136;2023-08-06T11:26:50;1.92;;;0.98;;
12567;SDS011;6349;50.904;6.136;2023-08-06T11:28:52;2.90;;;1.00;;
12567;SDS011;6349;50.904;6.136;2023-08-06T11:30:54;1.35;;;0.90;;
12567;SDS011;6349;50.904;6.136;2023-08-06T11:32:58;2.03;;;1.25;;
12567;SDS011;6349;50.904;6.136;2023-08-06T11:35:09;1.42;;;1.15;;
12567;SDS011;6349;50.904;6.136;2023-08-06T11:37:11;1.27;;;0.70;;
12567;SDS011;6349;50.904;6.136;2023-08-06T11:39:15;2.15;;;0.88;;
12567;SDS011;6349;50.904;6.136;2023-08-06T11:41:16;0.98;;;0.82;;
12567;SDS011;6349;50.904;6.136;2023-08-06T11:43:19;1.40;;;0.90;;
12567;SDS011;6349;50.904;6.136;2023-08-06T11:45:23;1.98;;;0.65;;
12567;SDS011;6349;50.904;6.136;2023-08-06T11:47:26;1.25;;;0.80;;
12567;SDS011;6349;50.904;6.136;2023-08-06T11:49:45;1.70;;;0.90;;
12567;SDS011;6349;50.904;6.136;2023-08-06T11:51:49;1.20;;;0.70;;
12567;SDS011;6349;50.904;6.136;2023-08-06T11:53:53;1.00;;;0.65;;
12567;SDS011;6349;50.904;6.136;2023-08-06T11:55:58;0.60;;;0.60;;
12567;SDS011;6349;50.904;6.136;2023-08-06T11:58:03;1.02;;;0.65;;
12567;SDS011;6349;50.904;6.136;2023-08-06T12:00:11;1.05;;;0.52;;
12567;SDS011;6349;50.904;6.136;2023-08-06T12:02:14;0.40;;;0.40;;
12567;SDS011;6349;50.904;6.136;2023-08-06T12:04:16;1.90;;;0.65;;
12567;SDS011;6349;50.904;6.136;2023-08-06T12:06:17;0.32;;;0.30;;
12567;SDS011;6349;50.904;6.136;2023-08-06T12:08:25;0.73;;;0.50;;
12567;SDS011;6349;50.904;6.136;2023-08-06T12:10:29;0.60;;;0.40;;
12567;SDS011;6349;50.904;6.136;2023-08-06T12:12:31;0.50;;;0.50;;
12567;SDS011;6349;50.904;6.136;2023-08-06T12:14:33;0.50;;;0.50;;
12567;SDS011;6349;50.904;6.136;2023-08-06T12:16:38;1.85;;;0.90;;
12567;SDS011;6349;50.904;6.136;2023-08-06T12:18:39;0.85;;;0.60;;
12567;SDS011;6349;50.904;6.136;2023-08-06T12:20:41;1.00;;;0.80;;
12567;SDS011;6349;50.904;6.136;2023-08-06T12:22:43;0.60;;;0.60;;
12567;SDS011;6349;50.904;6.136;2023-08-06T12:24:46;1.73;;;0.80;;
12567;SDS011;6349;50.904;6.136;2023-08-06T12:26:48;1.33;;;0.82;;
12567;SDS011;6349;50.904;6.136;2023-08-06T12:28:50;1.43;;;0.90;;